Time;durP1;ratioP1;P1;durP2;ratioP2;P2;SDS_P1;SDS_P2;PMS_P1;PMS_P2;Temp;Humidity;BMP_temperature;BMP_pressure;BME280_temperature;BME280_humidity;BME280_pressure;Samples;Min_cycle;Max_cycle;Signal;HPM_P1;HPM_P2
2022/04/01 00:00:48;;;;;;;10.45;6.10;;;;;;;2.96;74.83;100671.69;4933416;28;20039;-62
2022/04/01 00:03:13;;;;;;;9.20;5.70;;;;;;;2.72;74.93;100670.69;4939948;28;20445;-61
2022/04/01 00:05:39;;;;;;;11.93;5.57;;;;;;;2.81;75.54;100676.19;4937306;28;20380;-61
2022/04/01 00:08:05;;;;;;;10.45;5.60;;;;;;;2.73;75.34;100675.91;4928827;28;20043;-61
2022/04/01 00:10:30;;;;;;;10.70;6.07;;;;;;;2.66;75.60;100676.44;4940122;28;20616;-61
2022/04/01 00:12:56;;;;;;;10.57;5.85;;;;;;;2.78;75.66;100669.22;4937316;28;20445;-61
2022/04/01 00:15:22;;;;;;;9.63;5.53;;;;;;;2.41;75.78;100689.09;4933483;28;20050;-61
2022/04/01 00:17:47;;;;;;;13.98;5.68;;;;;;;2.55;76.92;100687.13;4927387;28;20085;-63
2022/04/01 00:20:13;;;;;;;9.40;5.63;;;;;;;2.51;76.41;100692.94;4931940;28;20148;-61
2022/04/01 00:22:40;;;;;;;8.90;5.50;;;;;;;2.55;76.60;100695.72;4938968;28;20085;-61
2022/04/01 00:25:06;;;;;;;10.20;5.28;;;;;;;2.85;74.79;100698.69;4934051;28;20225;-62
2022/04/01 00:27:33;;;;;;;11.95;5.88;;;;;;;2.84;74.70;100704.66;4933327;28;20145;-62
2022/04/01 00:29:58;;;;;;;9.63;5.72;;;;;;;2.78;74.47;100688.94;4933829;28;20038;-62
2022/04/01 00:32:23;;;;;;;10.63;6.25;;;;;;;2.62;75.17;100694.28;4938675;28;20081;-63
2022/04/01 00:34:49;;;;;;;10.60;6.32;;;;;;;2.69;75.59;100691.13;4939587;28;20711;-63
2022/04/01 00:37:18;;;;;;;10.85;6.25;;;;;;;2.62;76.08;100695.16;4929037;28;20293;-62
2022/04/01 00:39:43;;;;;;;13.68;6.10;;;;;;;2.51;75.78;100710.94;4932204;28;20173;-62
2022/04/01 00:42:09;;;;;;;12.70;6.25;;;;;;;2.59;75.80;100707.88;4936222;28;20306;-62
2022/04/01 00:44:37;;;;;;;12.13;6.30;;;;;;;2.68;75.36;100716.00;4932884;28;20418;-63
2022/04/01 00:47:05;;;;;;;11.52;6.20;;;;;;;2.68;75.04;100709.97;4939898;28;20294;-63
2022/04/01 00:49:32;;;;;;;11.73;5.85;;;;;;;2.60;75.22;100706.19;4936211;28;20050;-61
2022/04/01 00:52:01;;;;;;;11.05;5.93;;;;;;;2.78;74.75;100720.72;4932851;28;20838;-62
2022/04/01 00:54:27;;;;;;;10.15;5.95;;;;;;;2.88;74.77;100716.81;4936825;28;20426;-62
2022/04/01 00:56:54;;;;;;;10.23;5.80;;;;;;;2.57;75.70;100717.22;4935935;28;20051;-62
2022/04/01 00:59:20;;;;;;;10.65;5.82;;;;;;;2.61;74.81;100718.25;4931782;28;20035;-63
2022/04/01 01:01:47;;;;;;;8.50;5.40;;;;;;;2.81;74.80;100717.38;4918744;28;21181;-61
2022/04/01 01:04:14;;;;;;;10.02;5.72;;;;;;;2.45;75.58;100720.16;4938461;28;20141;-61
2022/04/01 01:06:42;;;;;;;11.80;5.55;;;;;;;2.55;75.04;100730.88;4932136;28;20047;-61
2022/04/01 01:09:08;;;;;;;10.38;5.22;;;;;;;2.78;74.86;100722.41;4941890;28;20459;-62
2022/04/01 01:11:35;;;;;;;11.23;5.30;;;;;;;2.52;75.01;100726.44;4942307;28;20061;-61
2022/04/01 01:14:02;;;;;;;9.70;5.60;;;;;;;2.59;74.84;100733.63;4942149;28;20046;-62
2022/04/01 01:16:28;;;;;;;11.65;5.68;;;;;;;2.45;74.67;100739.84;4931439;28;20329;-61
2022/04/01 01:19:11;;;;;;;10.35;6.03;;;;;;;2.49;75.47;100738.31;4936920;28;20065;-61
2022/04/01 01:21:38;;;;;;;10.95;5.90;;;;;;;2.80;74.49;100724.25;4934940;28;20860;-63
2022/04/01 01:24:08;;;;;;;12.45;5.70;;;;;;;2.47;74.85;100727.06;4943705;28;20418;-63
2022/04/01 01:26:36;;;;;;;10.40;5.65;;;;;;;2.69;75.05;100732.31;4933619;28;20054;-62
2022/04/01 01:29:03;;;;;;;9.60;6.03;;;;;;;2.89;75.28;100725.44;4941545;28;20582;-63
2022/04/01 01:31:29;;;;;;;10.48;6.03;;;;;;;2.66;75.50;100730.50;4938455;28;20557;-64
2022/04/01 01:33:57;;;;;;;10.73;5.78;;;;;;;2.92;74.92;100734.19;4930114;28;20039;-64
2022/04/01 01:36:25;;;;;;;11.48;5.70;;;;;;;2.79;75.17;100731.91;4946668;28;20070;-64
2022/04/01 01:38:51;;;;;;;9.57;5.72;;;;;;;3.02;74.08;100730.28;4937745;28;20461;-64
2022/04/01 01:41:17;;;;;;;9.45;5.68;;;;;;;3.08;73.92;100727.94;4940963;28;20057;-64
2022/04/01 01:43:42;;;;;;;8.82;5.50;;;;;;;2.97;73.61;100729.22;4930920;28;20267;-65
2022/04/01 01:46:08;;;;;;;10.65;6.13;;;;;;;2.69;74.87;100737.44;4933189;28;20038;-64
2022/04/01 01:48:34;;;;;;;10.25;5.85;;;;;;;2.79;74.99;100739.63;4936191;28;20494;-66
2022/04/01 01:56:27;;;;;;;11.60;6.43;;;;;;;2.70;74.98;100741.78;4929683;28;21370;-65
2022/04/01 01:58:54;;;;;;;9.90;6.28;;;;;;;2.99;74.64;100732.75;4940113;28;20051;-64
2022/04/01 02:01:20;;;;;;;10.45;6.22;;;;;;;2.93;74.50;100737.63;4930672;28;20046;-64
2022/04/01 02:03:45;;;;;;;11.30;6.10;;;;;;;2.94;74.06;100750.53;4937144;28;20063;-64
2022/04/01 02:06:10;;;;;;;11.30;6.30;;;;;;;2.92;74.46;100746.16;4937587;28;20122;-64
2022/04/01 02:08:36;;;;;;;12.40;6.40;;;;;;;2.65;75.83;100745.88;4939293;28;20494;-63
2022/04/01 02:11:02;;;;;;;10.90;6.55;;;;;;;2.87;75.30;100742.53;4956347;28;20065;-66
2022/04/01 02:13:27;;;;;;;12.95;6.20;;;;;;;2.82;74.76;100730.31;4932386;28;20048;-63
2022/04/01 02:15:55;;;;;;;14.20;6.82;;;;;;;2.61;75.24;100750.03;4933101;28;20997;-63
2022/04/01 02:18:21;;;;;;;12.35;6.43;;;;;;;3.03;74.45;100745.78;4941606;28;20054;-63
2022/04/01 02:20:48;;;;;;;14.25;6.78;;;;;;;2.92;74.47;100751.31;4938015;28;20122;-62
2022/04/01 02:23:13;;;;;;;12.65;6.45;;;;;;;3.01;74.97;100749.13;4938136;28;20059;-63
2022/04/01 02:25:40;;;;;;;11.55;6.65;;;;;;;3.01;73.47;100752.56;4935137;28;20090;-63
2022/04/01 02:28:05;;;;;;;10.52;6.25;;;;;;;2.75;75.69;100763.47;4932047;28;20046;-63
2022/04/01 02:30:31;;;;;;;11.88;6.32;;;;;;;2.79;75.13;100766.25;4941278;28;20525;-62
2022/04/01 02:32:56;;;;;;;10.45;6.10;;;;;;;2.92;75.54;100759.03;4936037;28;20298;-62
2022/04/01 02:35:22;;;;;;;9.32;6.20;;;;;;;3.31;73.73;100752.06;4939180;28;20488;-61
2022/04/01 02:37:50;;;;;;;11.05;6.25;;;;;;;2.79;75.17;100770.50;4934338;28;20098;-61
2022/04/01 02:40:16;;;;;;;10.13;6.00;;;;;;;2.89;74.85;100777.81;4937873;28;20058;-62
2022/04/01 02:42:41;;;;;;;11.60;6.30;;;;;;;2.98;74.14;100770.47;4939091;28;20042;-62
2022/04/01 02:45:07;;;;;;;10.18;6.00;;;;;;;3.02;73.98;100774.94;4943727;28;20517;-61
2022/04/01 02:47:33;;;;;;;11.25;6.50;;;;;;;2.63;75.13;100786.09;4937889;28;20047;-62
2022/04/01 02:50:00;;;;;;;10.65;6.38;;;;;;;2.60;75.94;100784.28;4933647;28;20357;-61
2022/04/01 02:52:26;;;;;;;11.50;6.57;;;;;;;2.79;75.38;100785.97;4936905;28;20050;-63
2022/04/01 02:54:52;;;;;;;10.15;6.20;;;;;;;3.16;73.93;100790.97;4938032;28;20036;-63
2022/04/01 02:57:18;;;;;;;12.75;6.75;;;;;;;2.70;75.82;100790.69;4937843;28;20042;-63
2022/04/01 02:59:44;;;;;;;11.32;6.68;;;;;;;3.04;74.95;100798.19;4929500;28;20100;-63
2022/04/01 03:02:09;;;;;;;13.80;6.72;;;;;;;2.78;74.57;100792.81;4943538;28;20279;-63
2022/04/01 03:04:35;;;;;;;11.02;6.50;;;;;;;2.59;75.20;100809.94;4940446;28;20073;-64
2022/04/01 03:07:01;;;;;;;12.32;7.07;;;;;;;2.62;76.08;100798.13;4938870;28;20571;-63
2022/04/01 03:09:26;;;;;;;11.55;6.80;;;;;;;3.01;74.43;100809.22;4942944;28;20121;-63
2022/04/01 03:11:52;;;;;;;11.55;7.00;;;;;;;2.82;74.82;100802.41;4934192;28;20042;-64
2022/04/01 03:14:17;;;;;;;14.73;6.63;;;;;;;2.57;75.55;100820.16;4940768;28;20043;-66
2022/04/01 03:16:43;;;;;;;10.18;6.75;;;;;;;2.59;75.36;100812.53;4940402;28;20104;-65
2022/04/01 03:19:10;;;;;;;11.82;6.90;;;;;;;3.11;74.60;100823.38;4932517;28;20090;-63
2022/04/01 03:21:37;;;;;;;11.05;6.60;;;;;;;2.58;75.44;100819.34;4935381;28;20055;-65
2022/04/01 03:24:03;;;;;;;11.85;7.07;;;;;;;2.80;74.84;100809.22;4928805;28;20082;-64
2022/04/01 03:26:28;;;;;;;12.77;6.85;;;;;;;2.75;75.08;100830.38;4937260;28;20312;-63
2022/04/01 03:29:05;;;;;;;11.13;7.03;;;;;;;2.87;74.48;100818.03;4941685;28;20042;-65
2022/04/01 03:31:31;;;;;;;10.48;6.40;;;;;;;2.96;74.13;100825.28;4933982;28;20564;-63
2022/04/01 03:33:57;;;;;;;13.38;7.05;;;;;;;2.83;74.54;100826.47;4929704;28;20047;-64
2022/04/01 03:36:22;;;;;;;13.00;7.00;;;;;;;2.66;74.16;100833.47;4932153;28;20050;-62
2022/04/01 03:38:47;;;;;;;11.23;6.30;;;;;;;3.00;73.82;100837.47;4930044;28;20596;-62
2022/04/01 03:41:13;;;;;;;11.30;6.57;;;;;;;2.90;73.54;100843.06;4938595;28;20546;-63
2022/04/01 03:43:40;;;;;;;11.13;6.80;;;;;;;2.98;74.63;100842.59;4926754;28;20423;-63
2022/04/01 03:46:11;;;;;;;11.65;6.47;;;;;;;2.81;74.01;100828.06;4929483;28;20248;-64
2022/04/01 03:48:45;;;;;;;10.07;6.47;;;;;;;3.02;73.77;100844.47;4942430;28;20592;-63
2022/04/01 03:51:19;;;;;;;10.50;6.22;;;;;;;3.08;73.74;100849.00;4937380;28;20043;-63
2022/04/01 03:53:58;;;;;;;11.37;6.60;;;;;;;3.04;72.65;100844.53;4928467;28;20058;-63
2022/04/01 03:56:30;;;;;;;11.80;6.80;;;;;;;2.86;74.00;100854.94;4925882;28;20314;-63
2022/04/01 03:59:06;;;;;;;12.18;6.50;;;;;;;2.83;74.37;100859.94;4938231;28;20214;-62
2022/04/01 04:01:34;;;;;;;10.45;6.55;;;;;;;2.64;74.51;100862.50;4931666;28;20468;-63
2022/04/01 04:04:10;;;;;;;9.90;5.97;;;;;;;2.81;74.22;100869.28;4935991;28;20375;-64
2022/04/01 04:06:38;;;;;;;11.57;6.00;;;;;;;2.88;73.74;100867.84;4938853;28;20146;-62
2022/04/01 04:09:03;;;;;;;12.23;6.07;;;;;;;3.13;72.47;100892.16;4940284;28;20039;-63
2022/04/01 04:11:33;;;;;;;10.30;6.35;;;;;;;3.00;73.22;100871.84;4938423;28;20050;-63
2022/04/01 04:14:02;;;;;;;11.75;6.68;;;;;;;2.87;74.34;100885.00;4931810;28;20051;-63
2022/04/01 04:16:39;;;;;;;10.23;6.57;;;;;;;3.03;73.58;100883.97;4939420;28;20046;-62
2022/04/01 04:19:09;;;;;;;11.43;6.55;;;;;;;2.78;75.31;100885.47;4923811;28;20840;-63
2022/04/01 04:21:50;;;;;;;11.82;6.80;;;;;;;2.97;74.06;100876.88;4929654;28;20474;-63
2022/04/01 04:24:36;;;;;;;12.43;7.10;;;;;;;2.57;75.77;100886.19;4931445;28;20046;-64
2022/04/01 04:27:10;;;;;;;13.38;6.90;;;;;;;2.86;74.94;100898.69;4940197;28;20051;-64
2022/04/01 04:29:47;;;;;;;12.88;6.43;;;;;;;2.72;75.26;100897.19;4938816;28;20249;-65
2022/04/01 04:32:36;;;;;;;11.80;6.03;;;;;;;2.95;74.66;100898.22;4942510;28;20042;-65
2022/04/01 04:35:07;;;;;;;11.60;5.80;;;;;;;2.78;75.37;100913.81;4936949;28;20047;-65
2022/04/01 04:37:41;;;;;;;11.25;6.22;;;;;;;2.65;75.25;100914.06;4937186;28;20047;-65
2022/04/01 04:40:07;;;;;;;10.45;5.85;;;;;;;2.85;74.65;100917.53;4938055;28;20086;-64
2022/04/01 04:42:32;;;;;;;10.90;5.95;;;;;;;2.94;74.06;100915.34;4933677;28;20117;-65
2022/04/01 04:44:59;;;;;;;12.23;6.00;;;;;;;2.93;73.94;100920.47;4927264;28;20097;-65
2022/04/01 04:47:32;;;;;;;11.20;6.18;;;;;;;2.96;74.66;100916.31;4937234;28;20074;-65
2022/04/01 04:49:57;;;;;;;10.73;5.95;;;;;;;2.84;74.98;100926.94;4933821;28;20071;-64
2022/04/01 04:52:29;;;;;;;10.15;5.70;;;;;;;3.06;73.92;100925.31;4934962;28;20795;-66
2022/04/01 04:54:55;;;;;;;8.23;5.78;;;;;;;2.94;73.62;100928.22;4936915;28;20101;-64
2022/04/01 04:57:21;;;;;;;11.13;6.22;;;;;;;3.05;74.45;100932.16;4937891;28;20056;-64
2022/04/01 04:59:49;;;;;;;13.40;6.00;;;;;;;2.98;74.19;100944.72;4927875;28;21369;-64
2022/04/01 05:02:42;;;;;;;12.20;6.18;;;;;;;3.20;74.42;100947.41;4932517;28;20410;-64
2022/04/01 05:05:19;;;;;;;12.80;6.47;;;;;;;2.83;75.62;100943.19;4938145;28;20467;-65
2022/04/01 05:08:22;;;;;;;10.93;5.82;;;;;;;2.92;74.65;100952.16;4933084;28;20406;-66
2022/04/01 05:10:53;;;;;;;12.40;6.10;;;;;;;2.65;74.83;100965.53;4940445;28;20064;-64
2022/04/01 05:13:56;;;;;;;12.05;6.10;;;;;;;3.02;74.65;100973.25;4937694;28;20051;-64
2022/04/01 05:16:51;;;;;;;9.90;5.47;;;;;;;2.94;75.25;100963.38;4932535;28;20050;-64
2022/04/01 05:19:25;;;;;;;9.73;5.28;;;;;;;2.61;74.85;100973.94;4935632;28;20047;-64
2022/04/01 05:22:02;;;;;;;9.68;5.32;;;;;;;3.09;75.08;100984.69;4929317;28;20416;-63
2022/04/01 05:24:46;;;;;;;8.93;5.18;;;;;;;2.88;74.82;100997.47;4933157;28;20138;-63
2022/04/01 05:27:24;;;;;;;8.25;4.82;;;;;;;2.92;74.34;100989.09;4936009;28;20183;-66
2022/04/01 05:30:04;;;;;;;8.43;4.80;;;;;;;2.68;75.41;100991.44;4926153;28;20865;-63
2022/04/01 05:32:37;;;;;;;9.30;4.72;;;;;;;2.81;73.86;101006.59;4934872;28;20047;-64
2022/04/01 05:35:04;;;;;;;7.97;4.40;;;;;;;2.92;74.51;100995.94;4939943;28;20067;-63
2022/04/01 05:37:34;;;;;;;6.40;4.18;;;;;;;2.98;73.96;101004.81;4941563;28;20042;-62
2022/04/01 05:40:05;;;;;;;8.45;4.60;;;;;;;2.72;75.02;101020.75;4929885;28;21267;-63
2022/04/01 05:42:32;;;;;;;7.72;4.32;;;;;;;2.79;74.15;101012.50;4930053;28;20035;-62
2022/04/01 05:45:01;;;;;;;8.23;4.60;;;;;;;3.08;74.47;101011.25;4937192;28;20466;-63
2022/04/01 05:47:30;;;;;;;8.05;4.20;;;;;;;2.82;73.73;101016.09;4936580;28;20501;-63
2022/04/01 05:49:58;;;;;;;7.35;4.20;;;;;;;3.24;72.78;101017.16;4929430;28;20095;-64
2022/04/01 05:52:24;;;;;;;7.35;3.83;;;;;;;3.28;72.44;101031.09;4937776;28;20396;-65
2022/04/01 05:54:50;;;;;;;6.75;4.20;;;;;;;3.46;71.51;101025.88;4935291;28;20078;-64
2022/04/01 05:57:18;;;;;;;6.72;3.70;;;;;;;3.37;71.99;101035.75;4932561;28;20569;-65
2022/04/01 05:59:44;;;;;;;7.05;3.78;;;;;;;3.64;71.51;101029.25;4933896;28;20043;-64
2022/04/01 06:02:33;;;;;;;7.85;4.00;;;;;;;3.22;71.31;101026.53;4938405;28;20412;-64
2022/04/01 06:05:27;;;;;;;7.88;4.00;;;;;;;3.29;71.85;101037.13;4941251;28;20046;-64
2022/04/01 06:08:16;;;;;;;6.68;3.80;;;;;;;3.62;70.30;101036.91;4934852;28;20462;-64
2022/04/01 06:11:07;;;;;;;7.05;3.50;;;;;;;3.32;70.93;101048.44;4940488;28;20623;-65
2022/04/01 06:13:52;;;;;;;9.18;3.40;;;;;;;3.15;70.08;101044.22;4942208;28;20039;-63
2022/04/01 06:16:27;;;;;;;10.02;3.47;;;;;;;3.38;69.23;101059.03;4948016;28;20049;-64
2022/04/01 06:19:17;;;;;;;6.68;3.70;;;;;;;3.46;68.56;101051.63;4940436;28;20346;-65
2022/04/01 06:21:50;;;;;;;6.53;3.42;;;;;;;3.68;69.04;101083.59;4934150;28;20051;-64
2022/04/01 06:24:31;;;;;;;6.38;3.15;;;;;;;3.58;68.35;101052.19;4941643;28;20053;-64
2022/04/01 06:27:00;;;;;;;7.07;3.47;;;;;;;3.99;67.66;101065.16;4938079;28;20090;-63
2022/04/01 06:29:40;;;;;;;5.97;3.30;;;;;;;3.83;66.45;101085.06;4932888;28;20398;-64
2022/04/01 06:32:07;;;;;;;5.53;3.10;;;;;;;4.26;66.89;101072.31;4940789;28;20066;-65
2022/04/01 06:34:46;;;;;;;5.38;3.13;;;;;;;4.74;65.98;101066.56;4957416;28;20071;-63
2022/04/01 06:37:20;;;;;;;5.43;3.03;;;;;;;5.37;63.97;101058.63;4938232;28;20564;-64
2022/04/01 06:39:55;;;;;;;8.00;3.20;;;;;;;4.64;63.02;101073.84;4924656;28;20039;-64
2022/04/01 06:42:25;;;;;;;5.95;2.80;;;;;;;4.60;64.18;101087.47;4936720;28;20524;-65
2022/04/01 06:44:51;;;;;;;5.80;3.20;;;;;;;4.84;64.40;101079.00;4941312;28;20711;-64
2022/04/01 06:47:17;;;;;;;7.47;2.80;;;;;;;5.08;64.31;101084.25;4944173;28;20046;-65
2022/04/01 06:49:43;;;;;;;7.55;2.90;;;;;;;4.89;63.82;101090.41;4923936;28;20046;-67
2022/04/01 06:52:08;;;;;;;6.43;2.95;;;;;;;5.24;62.84;101084.03;4939607;28;20566;-66
2022/04/01 06:54:35;;;;;;;6.70;2.65;;;;;;;5.32;63.15;101092.94;4930531;28;20160;-65
2022/04/01 06:57:01;;;;;;;7.20;2.67;;;;;;;5.35;62.26;101094.78;4940416;28;20230;-64
2022/04/01 06:59:26;;;;;;;7.45;2.72;;;;;;;4.67;63.45;101092.06;4921651;28;20066;-64
2022/04/01 07:01:51;;;;;;;7.00;2.50;;;;;;;4.67;62.98;101104.97;4934788;28;20066;-65
2022/04/01 07:04:17;;;;;;;8.52;2.38;;;;;;;4.72;62.75;101099.19;4935475;28;20109;-65
2022/04/01 07:06:42;;;;;;;5.80;2.40;;;;;;;4.85;62.38;101103.13;4936189;28;20052;-66
2022/04/01 07:09:07;;;;;;;4.43;2.35;;;;;;;4.95;62.58;101102.66;4935244;28;20043;-65
2022/04/01 07:11:34;;;;;;;7.32;2.60;;;;;;;4.75;63.12;101101.03;4935841;28;20110;-65
2022/04/01 07:13:59;;;;;;;4.97;2.53;;;;;;;5.12;61.65;101109.38;4932847;28;20063;-65
2022/04/01 07:16:25;;;;;;;4.65;2.40;;;;;;;5.07;62.11;101107.44;4930030;28;20097;-65
2022/04/01 07:18:50;;;;;;;5.03;2.30;;;;;;;4.61;62.70;101117.66;4957115;28;20043;-65
2022/04/01 07:21:15;;;;;;;6.82;2.20;;;;;;;4.98;61.99;101117.44;4937174;28;20462;-65
2022/04/01 07:23:41;;;;;;;6.70;2.50;;;;;;;5.05;61.42;101117.75;4932473;28;20075;-67
2022/04/01 07:26:07;;;;;;;4.20;2.50;;;;;;;5.03;61.29;101113.31;4929548;28;20631;-65
2022/04/01 07:28:32;;;;;;;7.63;2.25;;;;;;;5.17;61.01;101125.97;4940940;28;20199;-66
2022/04/01 07:32:28;;;;;;;5.43;2.10;;;;;;;5.06;60.74;101113.44;4933788;28;20410;-66
2022/04/01 07:33:44;;;;;;;5.95;2.10;;;;;;;4.70;59.57;101120.59;4929063;28;20058;-65
2022/04/01 07:36:09;;;;;;;4.30;2.08;;;;;;;4.76;58.96;101133.75;4932172;28;20077;-66
2022/04/01 07:38:36;;;;;;;5.05;2.05;;;;;;;5.11;58.52;101133.47;4930138;28;20118;-66
2022/04/01 07:41:02;;;;;;;4.47;2.17;;;;;;;5.26;59.05;101135.75;4935337;28;20673;-65
2022/04/01 07:43:27;;;;;;;4.47;1.90;;;;;;;5.03;58.70;101132.28;4939838;28;20110;-66
2022/04/01 07:45:52;;;;;;;9.10;1.98;;;;;;;4.99;58.58;101134.69;4933117;28;20690;-66
2022/04/01 07:48:18;;;;;;;15.10;2.00;;;;;;;4.96;58.97;101148.38;4939091;28;20387;-65
2022/04/01 07:50:43;;;;;;;3.92;1.70;;;;;;;5.34;57.93;101136.06;4939335;28;20293;-66
2022/04/01 07:53:09;;;;;;;4.95;2.00;;;;;;;5.51;57.52;101143.63;4941992;28;20050;-66
2022/04/01 07:55:35;;;;;;;4.28;1.70;;;;;;;5.57;56.77;101137.81;4928331;28;20051;-69
2022/04/01 07:58:00;;;;;;;4.25;1.70;;;;;;;5.74;56.49;101147.06;4941651;28;20051;-67
2022/04/01 08:00:26;;;;;;;2.90;1.70;;;;;;;5.89;56.07;101141.63;4941055;28;20065;-69
2022/04/01 08:02:54;;;;;;;5.32;1.80;;;;;;;6.42;55.71;101153.88;4936710;28;20104;-67
2022/04/01 08:05:20;;;;;;;4.80;2.03;;;;;;;6.12;54.69;101158.84;4937871;28;20046;-67
2022/04/01 08:07:47;;;;;;;3.15;1.75;;;;;;;6.07;55.08;101148.34;4928411;28;20046;-68
2022/04/01 08:10:12;;;;;;;4.82;2.10;;;;;;;6.27;53.52;101153.34;4936370;28;20881;-70
2022/04/01 08:12:37;;;;;;;3.17;1.80;;;;;;;5.62;53.71;101155.25;4925934;28;20070;-68
2022/04/01 08:15:04;;;;;;;5.93;2.00;;;;;;;5.95;53.38;101153.09;4941031;28;20718;-69
2022/04/01 08:17:29;;;;;;;3.17;1.42;;;;;;;6.19;52.75;101152.19;4948410;28;20043;-68
2022/04/01 08:19:54;;;;;;;6.10;1.90;;;;;;;6.15;52.74;101158.97;4930107;28;20612;-69
2022/04/01 08:22:20;;;;;;;2.90;1.48;;;;;;;6.26;51.99;101169.72;4938371;28;20134;-68
2022/04/01 08:24:45;;;;;;;3.28;1.70;;;;;;;5.94;53.56;101169.44;4936688;28;20053;-68
2022/04/01 08:27:11;;;;;;;5.65;1.70;;;;;;;5.74;53.07;101170.34;4934536;28;20616;-67
2022/04/01 08:29:38;;;;;;;4.05;1.70;;;;;;;6.02;53.13;101169.72;4918632;28;20578;-68
2022/04/01 08:32:10;;;;;;;5.55;1.60;;;;;;;6.59;52.77;101170.00;4935793;28;20065;-65
2022/04/01 08:34:37;;;;;;;8.07;2.08;;;;;;;6.46;52.74;101177.31;4952609;28;20083;-65
2022/04/01 08:37:03;;;;;;;3.72;1.45;;;;;;;6.31;52.03;101191.47;4934432;28;20038;-65
2022/04/01 08:39:32;;;;;;;3.78;2.00;;;;;;;6.78;52.08;101187.91;4929303;28;21064;-65
2022/04/01 08:41:57;;;;;;;3.47;1.52;;;;;;;6.73;49.31;101179.09;4928943;28;20493;-65
2022/04/01 08:44:23;;;;;;;5.60;1.30;;;;;;;6.92;48.39;101192.75;4933275;28;20047;-64
2022/04/01 08:46:48;;;;;;;3.10;1.40;;;;;;;6.95;47.36;101184.19;4931450;28;20039;-64
2022/04/01 08:49:13;;;;;;;1.77;1.23;;;;;;;6.66;47.70;101190.97;4954717;28;20039;-64
2022/04/01 08:51:39;;;;;;;3.85;1.40;;;;;;;7.11;47.88;101199.41;4926172;28;20042;-62
2022/04/01 08:54:05;;;;;;;2.55;1.50;;;;;;;7.24;48.50;101193.78;4933837;28;20079;-65
2022/04/01 08:56:30;;;;;;;5.82;1.35;;;;;;;7.00;46.64;101210.25;4941570;28;20074;-64
2022/04/01 08:58:56;;;;;;;3.30;1.23;;;;;;;6.27;46.55;101220.66;4932667;28;20073;-63
2022/04/01 09:01:22;;;;;;;5.18;1.50;;;;;;;6.58;48.04;101217.47;4935609;28;20079;-64
2022/04/01 09:03:47;;;;;;;2.22;1.30;;;;;;;6.89;49.13;101230.66;4932180;28;20248;-64
2022/04/01 09:06:13;;;;;;;4.07;1.38;;;;;;;6.57;47.90;101223.47;4932945;28;20063;-63
2022/04/01 09:08:41;;;;;;;3.92;1.67;;;;;;;6.40;48.92;101228.06;4936908;28;20078;-63
2022/04/01 09:11:08;;;;;;;5.53;1.40;;;;;;;6.50;48.88;101227.53;4934549;28;20231;-63
2022/04/01 09:13:50;;;;;;;3.80;1.63;;;;;;;6.17;50.44;101231.50;4927236;28;20043;-63
2022/04/01 09:16:23;;;;;;;3.45;1.50;;;;;;;6.73;50.55;101236.09;4937424;28;20406;-62
2022/04/01 09:18:48;;;;;;;5.10;1.50;;;;;;;6.06;50.06;101250.13;4938826;28;20597;-63
2022/04/01 09:21:14;;;;;;;3.38;1.40;;;;;;;6.84;50.49;101243.41;4939046;28;20162;-64
2022/04/01 09:23:46;;;;;;;3.67;1.48;;;;;;;7.06;50.77;101244.16;4928155;28;20183;-63
2022/04/01 09:26:11;;;;;;;4.88;1.55;;;;;;;6.95;50.39;101254.19;4935743;28;20053;-62
2022/04/01 09:28:42;;;;;;;3.80;1.60;;;;;;;7.16;49.99;101246.22;4936364;28;21100;-63
2022/04/01 09:31:13;;;;;;;3.20;1.42;;;;;;;6.71;49.12;101251.59;4938530;28;20098;-63
2022/04/01 09:33:45;;;;;;;1.90;1.20;;;;;;;6.55;50.61;101256.19;4930641;28;21242;-62
2022/04/01 09:36:13;;;;;;;3.08;1.48;;;;;;;6.61;50.90;101259.00;4942176;28;20046;-62
2022/04/01 09:38:39;;;;;;;3.35;1.50;;;;;;;6.46;51.75;101270.56;4935067;28;20698;-51
2022/04/01 09:41:07;;;;;;;3.78;1.65;;;;;;;6.03;52.29;101268.13;4931782;28;20459;-54
2022/04/01 09:43:39;;;;;;;4.75;1.45;;;;;;;6.79;51.55;101268.31;4933251;28;20962;-53
2022/04/01 09:46:26;;;;;;;3.42;1.40;;;;;;;6.58;51.03;101271.84;4938146;28;20129;-52
2022/04/01 09:48:58;;;;;;;3.83;1.50;;;;;;;6.96;50.12;101262.81;4935358;28;20046;-54
2022/04/01 09:51:28;;;;;;;3.63;1.50;;;;;;;7.17;49.27;101276.50;4937212;28;20331;-53
2022/04/01 09:53:55;;;;;;;2.97;1.40;;;;;;;7.08;50.04;101266.69;4928734;28;20553;-53
2022/04/01 09:56:45;;;;;;;3.65;1.60;;;;;;;7.09;49.51;101277.94;4942366;28;20054;-55
2022/04/01 09:59:13;;;;;;;4.85;1.50;;;;;;;6.84;50.26;101279.69;4932884;28;20067;-56
2022/04/01 10:01:40;;;;;;;3.15;1.50;;;;;;;7.10;49.06;101285.78;4933551;28;20097;-51
2022/04/01 10:04:06;;;;;;;2.10;1.25;;;;;;;6.48;49.38;101284.47;4937025;28;20803;-51
2022/04/01 10:06:33;;;;;;;2.35;1.58;;;;;;;7.04;50.01;101282.09;4938127;28;20061;-54
2022/04/01 10:09:01;;;;;;;3.28;1.55;;;;;;;6.69;49.71;101283.47;4935020;28;20471;-54
2022/04/01 10:11:34;;;;;;;2.97;1.50;;;;;;;7.07;49.10;101285.69;4940228;28;20055;-51
2022/04/01 10:14:09;;;;;;;2.42;1.50;;;;;;;6.61;50.13;101283.19;4934829;28;20058;-51
2022/04/01 10:16:41;;;;;;;2.95;1.30;;;;;;;7.07;49.50;101290.00;4945363;28;20325;-51
2022/04/01 10:19:11;;;;;;;2.92;1.33;;;;;;;6.75;48.94;101289.75;4928975;28;20741;-51
2022/04/01 10:21:40;;;;;;;4.97;1.58;;;;;;;6.79;50.18;101321.84;4936333;28;20178;-55
2022/04/01 10:24:33;;;;;;;3.33;1.30;;;;;;;6.83;49.80;101306.44;4939662;28;20043;-51
2022/04/01 10:27:21;;;;;;;2.28;1.40;;;;;;;6.78;50.41;101310.59;4930097;28;20523;-52
2022/04/01 10:29:46;;;;;;;2.55;1.30;;;;;;;7.39;49.83;101307.50;4931129;28;20046;-54
2022/04/01 10:32:37;;;;;;;2.33;1.20;;;;;;;7.34;48.88;101319.44;4934297;28;20065;-50
2022/04/01 10:35:05;;;;;;;2.30;1.40;;;;;;;7.04;48.63;101318.41;4937651;28;20167;-54
2022/04/01 10:37:32;;;;;;;5.88;1.30;;;;;;;7.09;48.81;101315.13;4939803;28;20567;-51
2022/04/01 10:40:00;;;;;;;3.63;1.40;;;;;;;6.46;49.23;101340.50;4933175;28;20059;-54
2022/04/01 10:42:34;;;;;;;3.00;1.38;;;;;;;6.48;49.49;101325.03;4940565;28;20624;-49
2022/04/01 10:45:25;;;;;;;2.95;1.63;;;;;;;6.61;49.19;101340.19;4936686;28;20282;-51
2022/04/01 10:53:41;;;;;;;3.88;1.67;;;;;;;7.31;48.48;101307.25;4932231;28;20514;-49
2022/04/01 10:56:22;;;;;;;3.00;1.75;;;;;;;7.56;48.60;101306.31;4932451;28;20383;-50
2022/04/01 10:59:10;;;;;;;3.78;1.40;;;;;;;7.03;48.46;101311.44;4938482;28;20039;-50
2022/04/01 11:01:51;;;;;;;2.90;1.77;;;;;;;7.75;47.74;101316.47;4934334;28;20054;-52
2022/04/01 11:04:16;;;;;;;5.65;2.35;;;;;;;7.13;48.86;101318.72;4939237;28;20043;-50
2022/04/01 11:06:52;;;;;;;3.50;1.70;;;;;;;7.39;48.80;101322.16;4941626;28;20053;-51
2022/04/01 11:09:45;;;;;;;2.80;1.80;;;;;;;6.78;48.06;101344.28;4939202;28;20039;-51
2022/04/01 11:12:19;;;;;;;6.82;1.88;;;;;;;6.56;48.99;101325.31;4934720;28;20449;-52
2022/04/01 11:14:57;;;;;;;5.40;2.00;;;;;;;6.85;49.17;101333.31;4936254;28;20589;-53
2022/04/01 11:17:26;;;;;;;5.07;2.10;;;;;;;6.56;50.09;101331.38;4930480;28;20753;-51
2022/04/01 11:20:10;;;;;;;2.88;2.03;;;;;;;7.42;48.93;101332.66;4925000;28;20573;-54
2022/04/01 11:22:59;;;;;;;3.15;1.90;;;;;;;6.93;47.75;101305.94;4938881;28;20046;-50
2022/04/01 11:25:24;;;;;;;5.47;1.98;;;;;;;6.95;47.34;101342.31;4936650;28;21116;-52
2022/04/01 11:27:50;;;;;;;4.95;2.30;;;;;;;6.75;48.41;101340.69;4930442;28;20239;-54
2022/04/01 11:30:18;;;;;;;6.07;2.22;;;;;;;7.24;49.26;101338.13;4936026;28;20206;-53
2022/04/01 11:32:49;;;;;;;3.72;1.92;;;;;;;7.19;48.56;101340.56;4928762;28;20068;-50
2022/04/01 11:35:16;;;;;;;3.88;2.00;;;;;;;7.25;47.90;101345.97;4937346;28;21144;-53
2022/04/01 11:37:46;;;;;;;4.72;2.20;;;;;;;6.89;48.06;101342.94;4925595;28;20384;-51
2022/04/01 11:40:14;;;;;;;4.18;2.50;;;;;;;7.46;48.19;101342.31;4937191;28;20113;-53
2022/04/01 11:42:59;;;;;;;4.82;2.40;;;;;;;7.34;48.74;101350.56;4927593;28;20047;-51
2022/04/01 11:45:26;;;;;;;4.57;2.50;;;;;;;7.79;48.58;101345.13;4942664;28;20525;-55
2022/04/01 11:47:52;;;;;;;3.75;2.30;;;;;;;6.62;50.00;101354.91;4931225;28;21032;-51
2022/04/01 11:50:22;;;;;;;4.65;2.40;;;;;;;6.68;50.44;101355.13;4940780;28;20043;-50
2022/04/01 11:52:50;;;;;;;3.90;2.47;;;;;;;6.86;49.32;101353.22;4930176;28;20043;-52